LKPD

Pardubice Airport

Airport
ICAO code
LKPD
IATA Code
PED
Summary
ICAO Region
EUR
ICAO Territory
Location

Pardubice, Czech Republic

Serving
Pardubice
Elevation
741 ft
Coordinates
50° 0' 56" N , 15° 44' 24" E
KCC
Metar
Observation
LKPD 270530Z 36004KT 330V030 9999 OVC023 00/M02 Q1018 NOSIG RMK WHT WHT
Station
PARDUBICE
Date/Time
2023-01-27 05:30:00
Wind direction
360°
Wind speed
04 kts
Lowest cloud amount
overcast
Temperature
0°C
Dew point
-2°C
Humidity
86%
QNH
1018 hPa
Weather condition
n/a

Description

Military airport (permitted to handle civil air traffic) serving the city of Pardubice, Czech Republic. Mainly used for charter flights.

Climatology

Humid Continental climate (Köppen climate classification Dfb) - Variable weather patterns and a large seasonal temperature variance. Summers are often warm and humid with frequent thunderstorms and winters can be very cold with frequent snowfall and persistent snow cover.

Runways

Designator Length Width Surface Rops
9/27 2500 75 CON No/No

Airport map

Aerial View

SKYbrary Partners:

Safety knowledge contributed by: